General Aviation Weather

Text Reports

Enter one or more of the following location identifiers separated by a space:

Zip Code, Four-Character ICAO or Three-Character IATA airport codes.

METAR - Aviation Routine Weather Report
KFWS - Fort Worth Spinks, Texas
Updated at 6:35 AM GMT on August 20, 2014 (1:35 AM CDT):
METAR KFWS 200635Z AUTO 16009KT 10SM CLR 26/21 A2991 RMK AO2 T02600208
TAF - Terminal Area Forecast
KFWS - Fort Worth Spinks, Texas
Updated at 6:35 AM GMT on August 20, 2014 (1:35 AM CDT):
No TAF is currently available for this location.
Decoded:
No decoded TAF is available.
PIREP - Pilot Weather Report
KFWS - Fort Worth Spinks, Texas
Updated at 6:35 AM GMT on August 20, 2014 (1:35 AM CDT):
No PIREP is currently available for this location.
AIRMET - Airmens Meteorological Information
KFWS - Fort Worth Spinks, Texas
Updated at 6:35 AM GMT on August 20, 2014 (1:35 AM CDT):
No AIRMET is currently available for this location.
SIGMET - Significant Meteorological Information
KFWS - Fort Worth Spinks, Texas
Updated at 6:35 AM GMT on August 20, 2014 (1:35 AM CDT):
No SIGMET is currently available for this location.
NOTAM - Notice to Airmen
KFWS - Fort Worth Spinks, Texas
Updated at 6:35 AM GMT on August 20, 2014 (1:35 AM CDT):
No NOTAM is currently available for this location.
Forecast Area
KFWS - Fort Worth Spinks, Texas
Updated at 6:35 AM GMT on August 20, 2014 (1:35 AM CDT):
No NOTAM is currently available for this location.
Aviation Weather Maps